sensor_id;sensor_type;location;lat;lon;timestamp;temperature;humidity
1025;DHT22;501;48.214;11.350;2023-08-20T00:00:11;23.20;49.40
1025;DHT22;501;48.214;11.350;2023-08-20T00:02:38;23.10;49.60
1025;DHT22;501;48.214;11.350;2023-08-20T00:05:07;23.10;49.10
1025;DHT22;501;48.214;11.350;2023-08-20T00:07:32;23.10;49.80
1025;DHT22;501;48.214;11.350;2023-08-20T00:09:58;23.10;50.00
1025;DHT22;501;48.214;11.350;2023-08-20T00:12:25;23.10;50.10
1025;DHT22;501;48.214;11.350;2023-08-20T00:15:02;23.10;50.50
1025;DHT22;501;48.214;11.350;2023-08-20T00:17:41;23.00;50.50
1025;DHT22;501;48.214;11.350;2023-08-20T00:20:10;23.00;50.60
1025;DHT22;501;48.214;11.350;2023-08-20T00:22:38;23.00;50.90
1025;DHT22;501;48.214;11.350;2023-08-20T00:25:05;23.00;51.30
1025;DHT22;501;48.214;11.350;2023-08-20T00:27:31;22.90;51.50
1025;DHT22;501;48.214;11.350;2023-08-20T00:29:56;22.90;51.90
1025;DHT22;501;48.214;11.350;2023-08-20T00:32:22;22.90;51.90
1025;DHT22;501;48.214;11.350;2023-08-20T00:34:48;22.90;51.90
1025;DHT22;501;48.214;11.350;2023-08-20T00:37:13;22.90;51.90
1025;DHT22;501;48.214;11.350;2023-08-20T00:39:39;22.90;51.90
1025;DHT22;501;48.214;11.350;2023-08-20T00:42:05;22.90;51.90
1025;DHT22;501;48.214;11.350;2023-08-20T00:44:31;22.90;51.90
1025;DHT22;501;48.214;11.350;2023-08-20T00:46:57;22.90;51.40
1025;DHT22;501;48.214;11.350;2023-08-20T00:49:25;22.80;51.10
1025;DHT22;501;48.214;11.350;2023-08-20T00:51:51;22.80;50.90
1025;DHT22;501;48.214;11.350;2023-08-20T00:54:17;22.80;50.70
1025;DHT22;501;48.214;11.350;2023-08-20T00:56:44;22.80;50.60
1025;DHT22;501;48.214;11.350;2023-08-20T00:59:10;22.70;50.10
1025;DHT22;501;48.214;11.350;2023-08-20T01:01:36;22.70;50.20
1025;DHT22;501;48.214;11.350;2023-08-20T01:04:02;22.60;50.20
1025;DHT22;501;48.214;11.350;2023-08-20T01:06:35;22.60;50.40
1025;DHT22;501;48.214;11.350;2023-08-20T01:09:20;22.60;50.40
1025;DHT22;501;48.214;11.350;2023-08-20T01:11:52;22.50;50.70
1025;DHT22;501;48.214;11.350;2023-08-20T01:14:20;22.40;50.90
1025;DHT22;501;48.214;11.350;2023-08-20T01:16:46;22.40;51.50
1025;DHT22;501;48.214;11.350;2023-08-20T01:19:17;22.30;52.00
1025;DHT22;501;48.214;11.350;2023-08-20T01:30:31;22.10;51.90
1025;DHT22;501;48.214;11.350;2023-08-20T01:32:58;22.00;52.20
1025;DHT22;501;48.214;11.350;2023-08-20T01:35:24;22.00;52.70
1025;DHT22;501;48.214;11.350;2023-08-20T01:37:53;21.90;52.60
1025;DHT22;501;48.214;11.350;2023-08-20T01:40:18;21.90;53.50
1025;DHT22;501;48.214;11.350;2023-08-20T01:42:44;21.90;53.70
1025;DHT22;501;48.214;11.350;2023-08-20T01:45:10;21.80;54.20
1025;DHT22;501;48.214;11.350;2023-08-20T01:47:36;21.80;54.50
1025;DHT22;501;48.214;11.350;2023-08-20T01:50:02;21.70;54.50
1025;DHT22;501;48.214;11.350;2023-08-20T01:52:28;21.70;54.80
1025;DHT22;501;48.214;11.350;2023-08-20T01:54:55;21.60;55.40
1025;DHT22;501;48.214;11.350;2023-08-20T01:57:20;21.50;55.70
1025;DHT22;501;48.214;11.350;2023-08-20T01:59:47;21.50;55.30
1025;DHT22;501;48.214;11.350;2023-08-20T02:02:13;21.50;55.10
1025;DHT22;501;48.214;11.350;2023-08-20T02:04:39;21.50;55.10
1025;DHT22;501;48.214;11.350;2023-08-20T02:07:04;21.40;55.20
1025;DHT22;501;48.214;11.350;2023-08-20T02:09:30;21.40;55.40
1025;DHT22;501;48.214;11.350;2023-08-20T02:11:56;21.40;55.00
1025;DHT22;501;48.214;11.350;2023-08-20T02:14:21;21.30;55.60
1025;DHT22;501;48.214;11.350;2023-08-20T02:16:47;21.30;55.70
1025;DHT22;501;48.214;11.350;2023-08-20T02:19:13;21.30;55.50
1025;DHT22;501;48.214;11.350;2023-08-20T02:21:39;21.30;55.90
1025;DHT22;501;48.214;11.350;2023-08-20T02:24:05;21.20;55.90
1025;DHT22;501;48.214;11.350;2023-08-20T02:26:31;21.20;56.10
1025;DHT22;501;48.214;11.350;2023-08-20T02:28:57;21.20;56.30
1025;DHT22;501;48.214;11.350;2023-08-20T02:31:22;21.10;56.30
1025;DHT22;501;48.214;11.350;2023-08-20T02:33:48;21.10;55.90
1025;DHT22;501;48.214;11.350;2023-08-20T02:36:14;21.10;56.30
1025;DHT22;501;48.214;11.350;2023-08-20T02:38:40;21.00;56.30
1025;DHT22;501;48.214;11.350;2023-08-20T02:41:05;21.00;56.30
1025;DHT22;501;48.214;11.350;2023-08-20T02:43:31;21.00;56.30
1025;DHT22;501;48.214;11.350;2023-08-20T02:45:57;21.00;56.80
1025;DHT22;501;48.214;11.350;2023-08-20T02:48:22;20.90;56.10
1025;DHT22;501;48.214;11.350;2023-08-20T02:50:53;20.90;56.40
1025;DHT22;501;48.214;11.350;2023-08-20T02:53:19;20.90;56.10
1025;DHT22;501;48.214;11.350;2023-08-20T02:55:45;20.80;56.30
1025;DHT22;501;48.214;11.350;2023-08-20T02:58:10;20.80;56.30
1025;DHT22;501;48.214;11.350;2023-08-20T03:00:36;20.80;56.70
1025;DHT22;501;48.214;11.350;2023-08-20T03:03:02;20.70;56.90
1025;DHT22;501;48.214;11.350;2023-08-20T03:05:33;20.70;57.50
1025;DHT22;501;48.214;11.350;2023-08-20T03:07:58;20.70;57.40
1025;DHT22;501;48.214;11.350;2023-08-20T03:10:24;20.60;57.40
1025;DHT22;501;48.214;11.350;2023-08-20T03:12:50;20.60;57.90
1025;DHT22;501;48.214;11.350;2023-08-20T03:15:15;20.60;58.60
1025;DHT22;501;48.214;11.350;2023-08-20T03:17:41;20.50;58.20
1025;DHT22;501;48.214;11.350;2023-08-20T03:20:07;20.50;58.30
1025;DHT22;501;48.214;11.350;2023-08-20T03:22:33;20.50;58.00
1025;DHT22;501;48.214;11.350;2023-08-20T03:24:59;20.50;58.50
1025;DHT22;501;48.214;11.350;2023-08-20T03:27:24;20.50;58.20
1025;DHT22;501;48.214;11.350;2023-08-20T03:29:51;20.50;58.00
1025;DHT22;501;48.214;11.350;2023-08-20T03:32:18;20.40;58.20
1025;DHT22;501;48.214;11.350;2023-08-20T03:34:43;20.40;58.40
1025;DHT22;501;48.214;11.350;2023-08-20T03:37:09;20.40;58.50
1025;DHT22;501;48.214;11.350;2023-08-20T03:39:34;20.30;58.40
1025;DHT22;501;48.214;11.350;2023-08-20T03:42:00;20.30;58.40
1025;DHT22;501;48.214;11.350;2023-08-20T03:44:26;20.30;58.40
1025;DHT22;501;48.214;11.350;2023-08-20T03:46:51;20.30;58.40
1025;DHT22;501;48.214;11.350;2023-08-20T03:49:17;20.20;58.60
1025;DHT22;501;48.214;11.350;2023-08-20T03:51:43;20.20;58.30
1025;DHT22;501;48.214;11.350;2023-08-20T03:54:09;20.20;58.70
1025;DHT22;501;48.214;11.350;2023-08-20T03:56:35;20.20;58.30
1025;DHT22;501;48.214;11.350;2023-08-20T03:59:01;20.20;58.50
1025;DHT22;501;48.214;11.350;2023-08-20T04:01:27;20.10;58.60
1025;DHT22;501;48.214;11.350;2023-08-20T04:03:52;20.10;58.70
1025;DHT22;501;48.214;11.350;2023-08-20T04:06:18;20.10;58.90
1025;DHT22;501;48.214;11.350;2023-08-20T04:08:44;20.10;58.90
1025;DHT22;501;48.214;11.350;2023-08-20T04:11:09;20.10;58.50
1025;DHT22;501;48.214;11.350;2023-08-20T04:13:35;20.10;58.80
1025;DHT22;501;48.214;11.350;2023-08-20T04:16:00;20.10;59.10
1025;DHT22;501;48.214;11.350;2023-08-20T04:18:26;20.00;59.30
1025;DHT22;501;48.214;11.350;2023-08-20T04:20:52;20.00;59.10
1025;DHT22;501;48.214;11.350;2023-08-20T04:23:21;20.00;59.40
1025;DHT22;501;48.214;11.350;2023-08-20T04:25:47;20.00;58.90
1025;DHT22;501;48.214;11.350;2023-08-20T04:28:13;20.00;59.40
1025;DHT22;501;48.214;11.350;2023-08-20T04:30:38;19.90;60.10
1025;DHT22;501;48.214;11.350;2023-08-20T04:33:05;20.00;60.50
1025;DHT22;501;48.214;11.350;2023-08-20T04:35:31;20.00;61.20
1025;DHT22;501;48.214;11.350;2023-08-20T04:37:57;20.00;61.80
1025;DHT22;501;48.214;11.350;2023-08-20T04:40:22;19.90;61.20
1025;DHT22;501;48.214;11.350;2023-08-20T04:42:49;19.90;60.70
1025;DHT22;501;48.214;11.350;2023-08-20T04:45:14;19.90;61.30
1025;DHT22;501;48.214;11.350;2023-08-20T04:47:43;19.90;61.00
1025;DHT22;501;48.214;11.350;2023-08-20T04:50:09;19.90;60.90
1025;DHT22;501;48.214;11.350;2023-08-20T04:52:35;19.90;60.50
1025;DHT22;501;48.214;11.350;2023-08-20T04:55:01;19.90;61.10
1025;DHT22;501;48.214;11.350;2023-08-20T04:57:27;19.90;61.50
1025;DHT22;501;48.214;11.350;2023-08-20T04:59:53;19.80;62.10
1025;DHT22;501;48.214;11.350;2023-08-20T05:02:19;19.80;62.50
1025;DHT22;501;48.214;11.350;2023-08-20T05:04:44;19.80;62.70
1025;DHT22;501;48.214;11.350;2023-08-20T05:07:10;19.80;63.00
1025;DHT22;501;48.214;11.350;2023-08-20T05:09:38;19.80;63.40
1025;DHT22;501;48.214;11.350;2023-08-20T05:12:04;19.90;64.40
1025;DHT22;501;48.214;11.350;2023-08-20T05:14:30;19.90;63.90
1025;DHT22;501;48.214;11.350;2023-08-20T05:16:56;19.90;63.90
1025;DHT22;501;48.214;11.350;2023-08-20T05:19:22;19.90;64.20
1025;DHT22;501;48.214;11.350;2023-08-20T05:21:47;20.00;64.60
1025;DHT22;501;48.214;11.350;2023-08-20T05:24:13;20.00;64.60
1025;DHT22;501;48.214;11.350;2023-08-20T05:26:39;20.10;63.70
1025;DHT22;501;48.214;11.350;2023-08-20T05:29:04;20.20;63.10
1025;DHT22;501;48.214;11.350;2023-08-20T05:31:30;20.20;62.60
1025;DHT22;501;48.214;11.350;2023-08-20T05:33:56;20.30;62.10
1025;DHT22;501;48.214;11.350;2023-08-20T05:36:22;20.40;62.20
1025;DHT22;501;48.214;11.350;2023-08-20T05:38:48;20.40;61.90
1025;DHT22;501;48.214;11.350;2023-08-20T05:41:14;20.50;61.50
1025;DHT22;501;48.214;11.350;2023-08-20T05:43:39;20.50;61.10
1025;DHT22;501;48.214;11.350;2023-08-20T05:46:05;20.60;61.20
1025;DHT22;501;48.214;11.350;2023-08-20T05:48:31;20.70;61.00
1025;DHT22;501;48.214;11.350;2023-08-20T05:50:56;20.80;60.80
1025;DHT22;501;48.214;11.350;2023-08-20T05:53:22;20.80;60.10
1025;DHT22;501;48.214;11.350;2023-08-20T05:55:48;20.90;58.90
1025;DHT22;501;48.214;11.350;2023-08-20T05:58:14;20.90;58.90
1025;DHT22;501;48.214;11.350;2023-08-20T06:00:40;21.00;59.00
1025;DHT22;501;48.214;11.350;2023-08-20T06:03:06;21.10;59.10
1025;DHT22;501;48.214;11.350;2023-08-20T06:05:33;21.20;59.00
1025;DHT22;501;48.214;11.350;2023-08-20T06:07:59;21.20;58.80
1025;DHT22;501;48.214;11.350;2023-08-20T06:10:24;21.20;58.20
1025;DHT22;501;48.214;11.350;2023-08-20T06:12:50;21.30;57.90
1025;DHT22;501;48.214;11.350;2023-08-20T06:15:16;21.40;58.30
1025;DHT22;501;48.214;11.350;2023-08-20T06:17:41;21.50;57.80
1025;DHT22;501;48.214;11.350;2023-08-20T06:20:07;21.50;57.80
1025;DHT22;501;48.214;11.350;2023-08-20T06:22:33;21.60;57.30
1025;DHT22;501;48.214;11.350;2023-08-20T06:24:59;21.70;56.90
1025;DHT22;501;48.214;11.350;2023-08-20T06:27:25;21.70;55.80
1025;DHT22;501;48.214;11.350;2023-08-20T06:29:51;21.80;55.80
1025;DHT22;501;48.214;11.350;2023-08-20T06:32:16;21.80;55.50
1025;DHT22;501;48.214;11.350;2023-08-20T06:34:42;21.90;55.40
1025;DHT22;501;48.214;11.350;2023-08-20T06:37:07;22.00;55.00
1025;DHT22;501;48.214;11.350;2023-08-20T06:39:33;22.10;55.00
1025;DHT22;501;48.214;11.350;2023-08-20T06:41:59;22.20;54.70
1025;DHT22;501;48.214;11.350;2023-08-20T06:44:24;22.20;55.00
1025;DHT22;501;48.214;11.350;2023-08-20T06:46:50;22.30;55.20
1025;DHT22;501;48.214;11.350;2023-08-20T06:49:15;22.40;54.90
1025;DHT22;501;48.214;11.350;2023-08-20T06:51:41;22.40;54.90
1025;DHT22;501;48.214;11.350;2023-08-20T06:54:07;22.50;54.10
1025;DHT22;501;48.214;11.350;2023-08-20T06:56:33;22.50;53.00
1025;DHT22;501;48.214;11.350;2023-08-20T06:58:59;22.70;52.80
1025;DHT22;501;48.214;11.350;2023-08-20T07:01:25;22.70;52.30
1025;DHT22;501;48.214;11.350;2023-08-20T07:03:51;22.80;52.40
1025;DHT22;501;48.214;11.350;2023-08-20T07:06:16;22.90;51.90
1025;DHT22;501;48.214;11.350;2023-08-20T07:08:44;22.90;51.90
1025;DHT22;501;48.214;11.350;2023-08-20T07:11:10;23.00;50.70
1025;DHT22;501;48.214;11.350;2023-08-20T07:13:35;23.10;50.50
1025;DHT22;501;48.214;11.350;2023-08-20T07:16:01;23.10;49.40
1025;DHT22;501;48.214;11.350;2023-08-20T07:18:27;23.20;48.90
1025;DHT22;501;48.214;11.350;2023-08-20T07:20:55;23.30;48.40
1025;DHT22;501;48.214;11.350;2023-08-20T07:23:20;23.40;47.80
1025;DHT22;501;48.214;11.350;2023-08-20T07:25:46;23.40;48.10
1025;DHT22;501;48.214;11.350;2023-08-20T07:28:12;23.50;46.60
1025;DHT22;501;48.214;11.350;2023-08-20T07:30:38;23.60;44.10
1025;DHT22;501;48.214;11.350;2023-08-20T07:33:05;23.70;42.40
1025;DHT22;501;48.214;11.350;2023-08-20T07:35:31;23.80;42.10
1025;DHT22;501;48.214;11.350;2023-08-20T07:37:56;23.90;43.20
1025;DHT22;501;48.214;11.350;2023-08-20T07:40:22;24.00;43.20
1025;DHT22;501;48.214;11.350;2023-08-20T07:42:47;24.00;44.50
1025;DHT22;501;48.214;11.350;2023-08-20T07:45:13;24.10;44.40
1025;DHT22;501;48.214;11.350;2023-08-20T07:47:39;24.20;44.00
1025;DHT22;501;48.214;11.350;2023-08-20T07:50:05;24.30;43.80
1025;DHT22;501;48.214;11.350;2023-08-20T07:52:32;24.30;44.10
1025;DHT22;501;48.214;11.350;2023-08-20T07:54:58;24.40;43.10
1025;DHT22;501;48.214;11.350;2023-08-20T07:57:24;24.40;42.50
1025;DHT22;501;48.214;11.350;2023-08-20T07:59:50;24.50;40.60
1025;DHT22;501;48.214;11.350;2023-08-20T08:02:16;24.50;40.40
1025;DHT22;501;48.214;11.350;2023-08-20T08:04:42;24.60;39.70
1025;DHT22;501;48.214;11.350;2023-08-20T08:07:08;24.60;40.00
1025;DHT22;501;48.214;11.350;2023-08-20T08:09:34;24.70;41.20
1025;DHT22;501;48.214;11.350;2023-08-20T08:12:00;24.80;41.40
1025;DHT22;501;48.214;11.350;2023-08-20T08:14:26;24.80;41.00
1025;DHT22;501;48.214;11.350;2023-08-20T08:16:52;24.90;40.70
1025;DHT22;501;48.214;11.350;2023-08-20T08:19:18;25.00;41.20
1025;DHT22;501;48.214;11.350;2023-08-20T08:21:45;25.00;42.20
1025;DHT22;501;48.214;11.350;2023-08-20T08:24:12;25.10;42.90
1025;DHT22;501;48.214;11.350;2023-08-20T08:26:39;25.20;41.70
1025;DHT22;501;48.214;11.350;2023-08-20T08:29:06;25.20;40.20
1025;DHT22;501;48.214;11.350;2023-08-20T08:31:32;25.30;40.20
1025;DHT22;501;48.214;11.350;2023-08-20T08:33:58;25.30;41.20
1025;DHT22;501;48.214;11.350;2023-08-20T08:36:24;25.40;41.30
1025;DHT22;501;48.214;11.350;2023-08-20T08:38:53;25.40;40.70
1025;DHT22;501;48.214;11.350;2023-08-20T08:41:22;25.60;41.30
1025;DHT22;501;48.214;11.350;2023-08-20T08:43:49;25.60;40.40
1025;DHT22;501;48.214;11.350;2023-08-20T08:46:15;25.70;39.70
1025;DHT22;501;48.214;11.350;2023-08-20T08:48:43;25.70;39.20
1025;DHT22;501;48.214;11.350;2023-08-20T08:51:09;25.80;40.50
1025;DHT22;501;48.214;11.350;2023-08-20T08:53:35;25.90;38.50
1025;DHT22;501;48.214;11.350;2023-08-20T08:56:02;25.90;39.00
1025;DHT22;501;48.214;11.350;2023-08-20T08:58:33;26.00;39.10
1025;DHT22;501;48.214;11.350;2023-08-20T09:00:59;26.00;38.70
1025;DHT22;501;48.214;11.350;2023-08-20T09:03:25;26.10;38.90
1025;DHT22;501;48.214;11.350;2023-08-20T09:05:56;26.10;38.20
1025;DHT22;501;48.214;11.350;2023-08-20T09:08:31;26.20;36.60
1025;DHT22;501;48.214;11.350;2023-08-20T09:10:59;26.30;36.20
1025;DHT22;501;48.214;11.350;2023-08-20T09:13:38;26.40;36.30
1025;DHT22;501;48.214;11.350;2023-08-20T09:16:11;26.40;37.10
1025;DHT22;501;48.214;11.350;2023-08-20T09:18:41;26.50;36.50
1025;DHT22;501;48.214;11.350;2023-08-20T09:21:08;26.60;35.60
1025;DHT22;501;48.214;11.350;2023-08-20T09:23:34;26.70;33.70
1025;DHT22;501;48.214;11.350;2023-08-20T09:26:02;26.80;33.60
1025;DHT22;501;48.214;11.350;2023-08-20T09:28:27;26.80;33.20
1025;DHT22;501;48.214;11.350;2023-08-20T09:30:58;26.90;34.10
1025;DHT22;501;48.214;11.350;2023-08-20T09:33:25;27.00;33.60
1025;DHT22;501;48.214;11.350;2023-08-20T09:35:51;27.10;31.60
1025;DHT22;501;48.214;11.350;2023-08-20T09:38:19;27.20;33.20
1025;DHT22;501;48.214;11.350;2023-08-20T09:40:49;27.20;32.20
1025;DHT22;501;48.214;11.350;2023-08-20T09:43:16;27.30;30.80
1025;DHT22;501;48.214;11.350;2023-08-20T09:45:42;27.30;31.10
1025;DHT22;501;48.214;11.350;2023-08-20T09:48:09;27.40;31.00
1025;DHT22;501;48.214;11.350;2023-08-20T09:50:37;27.50;31.20
1025;DHT22;501;48.214;11.350;2023-08-20T09:53:16;27.60;31.40
1025;DHT22;501;48.214;11.350;2023-08-20T09:55:43;27.60;31.50
1025;DHT22;501;48.214;11.350;2023-08-20T09:58:10;27.70;30.20
1025;DHT22;501;48.214;11.350;2023-08-20T10:00:37;27.70;32.40
1025;DHT22;501;48.214;11.350;2023-08-20T10:03:03;27.80;31.10
1025;DHT22;501;48.214;11.350;2023-08-20T10:05:29;27.90;30.50
1025;DHT22;501;48.214;11.350;2023-08-20T10:07:55;27.90;30.10
1025;DHT22;501;48.214;11.350;2023-08-20T10:10:21;28.00;30.30
1025;DHT22;501;48.214;11.350;2023-08-20T10:12:47;28.00;29.80
1025;DHT22;501;48.214;11.350;2023-08-20T10:15:14;28.10;30.00
1025;DHT22;501;48.214;11.350;2023-08-20T10:17:44;28.20;29.60
1025;DHT22;501;48.214;11.350;2023-08-20T10:20:13;28.20;30.40
1025;DHT22;501;48.214;11.350;2023-08-20T10:22:44;28.30;29.00
1025;DHT22;501;48.214;11.350;2023-08-20T10:25:26;28.40;28.50
1025;DHT22;501;48.214;11.350;2023-08-20T10:27:52;28.40;28.50
1025;DHT22;501;48.214;11.350;2023-08-20T10:30:25;28.50;27.60
1025;DHT22;501;48.214;11.350;2023-08-20T10:32:57;28.50;28.60
1025;DHT22;501;48.214;11.350;2023-08-20T10:35:26;28.60;28.40
1025;DHT22;501;48.214;11.350;2023-08-20T10:38:06;28.70;27.80
1025;DHT22;501;48.214;11.350;2023-08-20T10:43:45;28.90;28.30
1025;DHT22;501;48.214;11.350;2023-08-20T10:46:22;28.90;27.90
1025;DHT22;501;48.214;11.350;2023-08-20T10:48:53;29.00;26.70
1025;DHT22;501;48.214;11.350;2023-08-20T10:56:44;29.20;25.90
1025;DHT22;501;48.214;11.350;2023-08-20T10:59:18;29.20;25.50
1025;DHT22;501;48.214;11.350;2023-08-20T11:01:48;29.30;26.20
1025;DHT22;501;48.214;11.350;2023-08-20T11:04:16;29.40;26.00
1025;DHT22;501;48.214;11.350;2023-08-20T11:06:42;29.40;26.30
1025;DHT22;501;48.214;11.350;2023-08-20T11:09:08;29.50;25.90
1025;DHT22;501;48.214;11.350;2023-08-20T11:11:38;29.60;26.30
1025;DHT22;501;48.214;11.350;2023-08-20T11:14:11;29.60;25.00
1025;DHT22;501;48.214;11.350;2023-08-20T11:16:38;29.70;25.60
1025;DHT22;501;48.214;11.350;2023-08-20T11:19:05;29.70;25.40
1025;DHT22;501;48.214;11.350;2023-08-20T11:21:34;29.70;25.40
1025;DHT22;501;48.214;11.350;2023-08-20T11:24:01;29.80;24.80
1025;DHT22;501;48.214;11.350;2023-08-20T11:26:26;29.90;24.70
1025;DHT22;501;48.214;11.350;2023-08-20T11:28:52;29.90;25.50
1025;DHT22;501;48.214;11.350;2023-08-20T11:31:19;29.90;24.30
1025;DHT22;501;48.214;11.350;2023-08-20T11:33:44;30.00;24.00
1025;DHT22;501;48.214;11.350;2023-08-20T11:36:10;30.00;24.00
1025;DHT22;501;48.214;11.350;2023-08-20T11:38:37;30.10;24.90
1025;DHT22;501;48.214;11.350;2023-08-20T11:41:02;30.30;25.30
1025;DHT22;501;48.214;11.350;2023-08-20T11:43:28;30.50;25.20
1025;DHT22;501;48.214;11.350;2023-08-20T11:45:55;30.70;25.20
1025;DHT22;501;48.214;11.350;2023-08-20T11:48:21;31.00;24.30
1025;DHT22;501;48.214;11.350;2023-08-20T11:50:47;31.20;23.70
1025;DHT22;501;48.214;11.350;2023-08-20T11:53:13;31.50;24.30
1025;DHT22;501;48.214;11.350;2023-08-20T11:55:40;31.90;22.70
1025;DHT22;501;48.214;11.350;2023-08-20T11:58:16;32.30;23.70
1025;DHT22;501;48.214;11.350;2023-08-20T12:00:48;32.70;23.10
1025;DHT22;501;48.214;11.350;2023-08-20T12:03:15;33.10;21.20
1025;DHT22;501;48.214;11.350;2023-08-20T12:05:44;33.50;22.90
1025;DHT22;501;48.214;11.350;2023-08-20T12:08:15;33.90;21.60
1025;DHT22;501;48.214;11.350;2023-08-20T12:10:43;34.20;20.60
1025;DHT22;501;48.214;11.350;2023-08-20T12:13:09;34.50;21.40
1025;DHT22;501;48.214;11.350;2023-08-20T12:15:35;34.90;20.30
1025;DHT22;501;48.214;11.350;2023-08-20T12:18:02;35.20;19.20
1025;DHT22;501;48.214;11.350;2023-08-20T12:20:31;35.50;17.80
1025;DHT22;501;48.214;11.350;2023-08-20T12:23:02;35.90;19.00
1025;DHT22;501;48.214;11.350;2023-08-20T12:25:33;36.10;19.50
1025;DHT22;501;48.214;11.350;2023-08-20T12:28:02;36.40;18.40
1025;DHT22;501;48.214;11.350;2023-08-20T12:30:30;36.70;18.30
1025;DHT22;501;48.214;11.350;2023-08-20T12:32:56;36.90;18.50
1025;DHT22;501;48.214;11.350;2023-08-20T12:35:21;37.20;17.60
1025;DHT22;501;48.214;11.350;2023-08-20T12:37:47;37.30;17.60
1025;DHT22;501;48.214;11.350;2023-08-20T12:40:13;37.60;15.50
1025;DHT22;501;48.214;11.350;2023-08-20T12:42:39;37.70;16.70
1025;DHT22;501;48.214;11.350;2023-08-20T12:45:06;37.80;16.90
1025;DHT22;501;48.214;11.350;2023-08-20T12:47:32;38.00;16.70
1025;DHT22;501;48.214;11.350;2023-08-20T12:49:57;38.10;15.70
1025;DHT22;501;48.214;11.350;2023-08-20T12:52:23;38.30;16.90
1025;DHT22;501;48.214;11.350;2023-08-20T12:54:48;38.40;16.70
1025;DHT22;501;48.214;11.350;2023-08-20T12:57:14;38.60;16.20
1025;DHT22;501;48.214;11.350;2023-08-20T12:59:39;38.80;15.40
1025;DHT22;501;48.214;11.350;2023-08-20T13:02:05;38.90;15.90
1025;DHT22;501;48.214;11.350;2023-08-20T13:04:31;39.00;17.00
1025;DHT22;501;48.214;11.350;2023-08-20T13:06:57;39.10;16.40
1025;DHT22;501;48.214;11.350;2023-08-20T13:09:23;39.30;16.90
1025;DHT22;501;48.214;11.350;2023-08-20T13:11:49;39.50;14.70
1025;DHT22;501;48.214;11.350;2023-08-20T13:14:18;39.60;15.80
1025;DHT22;501;48.214;11.350;2023-08-20T13:16:44;39.70;14.10
1025;DHT22;501;48.214;11.350;2023-08-20T13:19:10;39.80;14.10
1025;DHT22;501;48.214;11.350;2023-08-20T13:21:36;39.90;15.20
1025;DHT22;501;48.214;11.350;2023-08-20T13:24:01;40.00;13.40
1025;DHT22;501;48.214;11.350;2023-08-20T13:26:27;40.00;13.40
1025;DHT22;501;48.214;11.350;2023-08-20T13:28:53;40.10;13.70
1025;DHT22;501;48.214;11.350;2023-08-20T13:31:18;40.10;14.40
1025;DHT22;501;48.214;11.350;2023-08-20T13:33:44;40.20;12.70
1025;DHT22;501;48.214;11.350;2023-08-20T13:36:09;40.20;13.10
1025;DHT22;501;48.214;11.350;2023-08-20T13:38:35;40.30;13.20
1025;DHT22;501;48.214;11.350;2023-08-20T13:41:01;40.30;14.40
1025;DHT22;501;48.214;11.350;2023-08-20T13:43:26;40.30;14.00
1025;DHT22;501;48.214;11.350;2023-08-20T13:45:52;40.40;12.70
1025;DHT22;501;48.214;11.350;2023-08-20T13:48:18;40.40;12.40
1025;DHT22;501;48.214;11.350;2023-08-20T13:50:43;40.40;12.90
1025;DHT22;501;48.214;11.350;2023-08-20T13:53:09;40.30;13.20
1025;DHT22;501;48.214;11.350;2023-08-20T13:55:35;40.30;12.70
1025;DHT22;501;48.214;11.350;2023-08-20T13:58:01;40.30;12.40
1025;DHT22;501;48.214;11.350;2023-08-20T14:00:27;40.30;12.40
1025;DHT22;501;48.214;11.350;2023-08-20T14:02:52;40.40;13.40
1025;DHT22;501;48.214;11.350;2023-08-20T14:05:18;40.40;11.90
1025;DHT22;501;48.214;11.350;2023-08-20T14:07:44;40.50;12.30
1025;DHT22;501;48.214;11.350;2023-08-20T14:10:10;40.50;11.80
1025;DHT22;501;48.214;11.350;2023-08-20T14:12:36;40.40;12.70
1025;DHT22;501;48.214;11.350;2023-08-20T14:15:02;40.50;13.20
1025;DHT22;501;48.214;11.350;2023-08-20T14:17:29;40.50;13.30
1025;DHT22;501;48.214;11.350;2023-08-20T14:19:56;40.40;11.90
1025;DHT22;501;48.214;11.350;2023-08-20T14:22:21;40.30;12.30
1025;DHT22;501;48.214;11.350;2023-08-20T14:24:47;40.30;12.10
1025;DHT22;501;48.214;11.350;2023-08-20T14:27:13;40.30;13.30
1025;DHT22;501;48.214;11.350;2023-08-20T14:29:38;40.30;12.40
1025;DHT22;501;48.214;11.350;2023-08-20T14:32:04;40.40;12.20
1025;DHT22;501;48.214;11.350;2023-08-20T14:34:30;40.40;12.10
1025;DHT22;501;48.214;11.350;2023-08-20T14:36:56;40.30;11.90
1025;DHT22;501;48.214;11.350;2023-08-20T14:39:21;40.30;12.20
1025;DHT22;501;48.214;11.350;2023-08-20T14:41:47;40.20;12.30
1025;DHT22;501;48.214;11.350;2023-08-20T14:44:12;40.10;12.40
1025;DHT22;501;48.214;11.350;2023-08-20T14:46:38;40.10;12.50
1025;DHT22;501;48.214;11.350;2023-08-20T14:49:03;40.00;12.70
1025;DHT22;501;48.214;11.350;2023-08-20T14:51:29;39.90;12.80
1025;DHT22;501;48.214;11.350;2023-08-20T14:53:55;39.90;12.10
1025;DHT22;501;48.214;11.350;2023-08-20T14:56:20;39.90;12.30
1025;DHT22;501;48.214;11.350;2023-08-20T14:58:46;39.90;12.00
1025;DHT22;501;48.214;11.350;2023-08-20T15:01:12;39.90;11.80
1025;DHT22;501;48.214;11.350;2023-08-20T15:03:38;39.90;12.10
1025;DHT22;501;48.214;11.350;2023-08-20T15:06:04;39.90;12.30
1025;DHT22;501;48.214;11.350;2023-08-20T15:08:30;39.90;11.50
1025;DHT22;501;48.214;11.350;2023-08-20T15:10:59;39.80;12.10
1025;DHT22;501;48.214;11.350;2023-08-20T15:13:32;39.70;12.40
1025;DHT22;501;48.214;11.350;2023-08-20T15:15:58;39.60;12.00
1025;DHT22;501;48.214;11.350;2023-08-20T15:18:24;39.50;12.10
1025;DHT22;501;48.214;11.350;2023-08-20T15:20:59;39.40;12.10
1025;DHT22;501;48.214;11.350;2023-08-20T15:23:27;39.20;12.30
1025;DHT22;501;48.214;11.350;2023-08-20T15:25:54;39.20;12.40
1025;DHT22;501;48.214;11.350;2023-08-20T15:28:24;39.00;12.80
1025;DHT22;501;48.214;11.350;2023-08-20T15:30:51;39.00;13.10
1025;DHT22;501;48.214;11.350;2023-08-20T15:33:17;39.00;12.80
1025;DHT22;501;48.214;11.350;2023-08-20T15:35:43;39.00;13.60
1025;DHT22;501;48.214;11.350;2023-08-20T15:38:09;38.90;13.30
1025;DHT22;501;48.214;11.350;2023-08-20T15:40:35;38.90;13.60
1025;DHT22;501;48.214;11.350;2023-08-20T15:43:01;38.90;13.50
1025;DHT22;501;48.214;11.350;2023-08-20T15:45:26;38.80;13.50
1025;DHT22;501;48.214;11.350;2023-08-20T15:47:52;38.70;13.30
1025;DHT22;501;48.214;11.350;2023-08-20T15:50:17;38.50;13.10
1025;DHT22;501;48.214;11.350;2023-08-20T15:52:43;38.40;14.10
1025;DHT22;501;48.214;11.350;2023-08-20T15:55:09;38.20;14.00
1025;DHT22;501;48.214;11.350;2023-08-20T15:57:35;38.00;13.90
1025;DHT22;501;48.214;11.350;2023-08-20T16:00:02;37.80;14.60
1025;DHT22;501;48.214;11.350;2023-08-20T16:02:28;37.60;15.50
1025;DHT22;501;48.214;11.350;2023-08-20T16:04:54;37.40;15.00
1025;DHT22;501;48.214;11.350;2023-08-20T16:07:19;37.20;15.60
1025;DHT22;501;48.214;11.350;2023-08-20T16:09:45;37.10;16.10
1025;DHT22;501;48.214;11.350;2023-08-20T16:12:10;36.90;16.00
1025;DHT22;501;48.214;11.350;2023-08-20T16:14:36;36.70;15.80